Aeroporto :
LOGIN :

Iscrizione | Disclaimer

   EN    FR    IT 

 










Sommario :    VFR   VFR Marginale   IFR   IFR Intensivo   IFR Molto Intensivo
Visibilità : 
Base nubi : 
>= 8 km
>= 3000ft
5 / 8 km
1000 / 3000 ft
1500m / 5 km
500 / 1000 ft
800 / 1500m
200 / 500 ft
< 800m
< 200 ft
Simboli :   Temporali  Nebbia  Neve Forte  Precipitazioni Forti  Vento > 20 kt
SIGMETs :   Varie  Temporali  Ghiacco  Turbolenza  Onda orograficha  Ceneri Vulcaniche






- Altitudine del aeroporto : -15 ft
- Codice IATA : RTM


EHRD - Rotterdam Zestienhoven

ULTIMO METAR :
  • 212325Z AUTO 23012KT 2500 DZ FEW003 BKN005 OVC006 10/10 Q0998 NOSIG

METARs OBSOLETI :
  • 212255Z AUTO 22014KT 2300 DZ FEW004 BKN005 OVC006 10/10 Q0998 NOSIG
  • 212225Z AUTO 21013KT 180V240 2700 -DZ SCT004/// OVC005/// 10/09 Q0998 REDZ NOSIG
  • 212155Z AUTO 21014KT 170V240 2800 DZRA FEW004/// BKN005/// OVC007/// 10/09 Q0998 NOSIG
  • 212125Z AUTO 21018KT 2500 -RA FEW005/// BKN006/// OVC008/// 10/09 Q0999 REDZRA NOSIG
  • 212055Z AUTO 21017G27KT 170V240 2400 -RADZ SCT005 BKN007 OVC008 10/09 Q0999 BECMG 3500
  • 212025Z AUTO 20016KT 170V240 2600 -RA FEW005/// BKN006/// OVC008/// 10/09 Q1000 BECMG 3500
  • 211955Z AUTO 20017KT 170V230 2600 -RA SCT006/// BKN007/// BKN009/// 10/09 Q1000 BECMG 3500
  • 211925Z AUTO 19016KT 160V230 3400 -RA SCT006 BKN007 OVC008 09/08 Q1000 NOSIG

TAF TAF EHRD
Valido dal 22 a 00 ore il 23 a 06 ore UTC


212311Z 2200/2306 24012KT 3500 -DZ BKN005
PROB30
TEMPO 2200/2207 2000 DZ BR SCT002 BKN003
BECMG 2208/2211 18016KT 9999 NSW SCT010 BKN014
TEMPO 2211/2216 18020G30KT 4500 RADZ BKN007
BECMG 2214/2217 22025G35KT SCT017 BKN025
TEMPO 2216/2223 4500 SHRA RA SCT015CB BKN017
BECMG 2219/2221 28035G47KT
BECMG 2223/2301 26025G35KT
BECMG 2303/2306 20016KT



MetMap, La meteo Aeronautica in un colpo d'occhio ! - Copyright ORBIFLY Dicembre 2007 - Disclaimer

ORBIFLY MET'MAP TEAM :

Programmazione e sviluppo : Alexandra Zaïnal
Concezione : Baudouin d'Aumeries
Supporto tecnico e logistico : Manuel Goepfert
Aiuto : Marc-Olivier Méhu
Aiuto per la traduzione : Arnaldo La Scala




FONTI E CREDITI :

   NOAA